sensor_id;sensor_type;location;lat;lon;timestamp;P1;durP1;ratioP1;P2;durP2;ratioP2
16579;SDS011;8402;51.466;6.806;2023-04-03T00:00:37;9.47;;;4.87;;
16579;SDS011;8402;51.466;6.806;2023-04-03T00:03:07;8.83;;;4.67;;
16579;SDS011;8402;51.466;6.806;2023-04-03T00:05:37;10.30;;;4.83;;
16579;SDS011;8402;51.466;6.806;2023-04-03T00:08:07;12.03;;;5.13;;
16579;SDS011;8402;51.466;6.806;2023-04-03T00:10:40;14.53;;;4.70;;
16579;SDS011;8402;51.466;6.806;2023-04-03T00:13:10;9.93;;;5.17;;
16579;SDS011;8402;51.466;6.806;2023-04-03T00:15:41;8.93;;;4.77;;
16579;SDS011;8402;51.466;6.806;2023-04-03T00:18:11;13.10;;;5.73;;
16579;SDS011;8402;51.466;6.806;2023-04-03T00:20:41;8.13;;;4.87;;
16579;SDS011;8402;51.466;6.806;2023-04-03T00:23:11;11.00;;;4.90;;
16579;SDS011;8402;51.466;6.806;2023-04-03T00:25:44;13.03;;;5.50;;
16579;SDS011;8402;51.466;6.806;2023-04-03T00:28:14;12.73;;;5.63;;
16579;SDS011;8402;51.466;6.806;2023-04-03T00:30:44;11.10;;;5.40;;
16579;SDS011;8402;51.466;6.806;2023-04-03T00:33:14;11.33;;;6.00;;
16579;SDS011;8402;51.466;6.806;2023-04-03T00:35:48;12.20;;;5.97;;
16579;SDS011;8402;51.466;6.806;2023-04-03T00:38:18;10.10;;;5.30;;
16579;SDS011;8402;51.466;6.806;2023-04-03T00:40:51;12.63;;;6.20;;
16579;SDS011;8402;51.466;6.806;2023-04-03T00:43:22;10.33;;;5.90;;
16579;SDS011;8402;51.466;6.806;2023-04-03T00:45:54;9.80;;;5.07;;
16579;SDS011;8402;51.466;6.806;2023-04-03T00:48:28;11.47;;;6.07;;
16579;SDS011;8402;51.466;6.806;2023-04-03T00:51:00;14.63;;;6.83;;
16579;SDS011;8402;51.466;6.806;2023-04-03T00:53:32;10.77;;;5.63;;
16579;SDS011;8402;51.466;6.806;2023-04-03T00:56:08;15.90;;;6.20;;
16579;SDS011;8402;51.466;6.806;2023-04-03T00:58:42;11.47;;;6.07;;
16579;SDS011;8402;51.466;6.806;2023-04-03T01:01:16;11.23;;;6.07;;
16579;SDS011;8402;51.466;6.806;2023-04-03T01:03:50;11.97;;;5.73;;
16579;SDS011;8402;51.466;6.806;2023-04-03T01:06:21;11.17;;;6.00;;
16579;SDS011;8402;51.466;6.806;2023-04-03T01:08:57;14.13;;;6.27;;
16579;SDS011;8402;51.466;6.806;2023-04-03T01:11:31;11.70;;;5.73;;
16579;SDS011;8402;51.466;6.806;2023-04-03T01:14:01;17.00;;;6.27;;
16579;SDS011;8402;51.466;6.806;2023-04-03T01:16:32;14.60;;;6.13;;
16579;SDS011;8402;51.466;6.806;2023-04-03T01:19:02;11.67;;;6.10;;
16579;SDS011;8402;51.466;6.806;2023-04-03T01:21:48;16.57;;;6.77;;
16579;SDS011;8402;51.466;6.806;2023-04-03T01:24:31;15.57;;;6.57;;
16579;SDS011;8402;51.466;6.806;2023-04-03T01:27:08;14.73;;;6.70;;
16579;SDS011;8402;51.466;6.806;2023-04-03T01:29:40;10.43;;;5.77;;
16579;SDS011;8402;51.466;6.806;2023-04-03T01:32:14;13.33;;;6.27;;
16579;SDS011;8402;51.466;6.806;2023-04-03T01:34:43;14.97;;;6.57;;
16579;SDS011;8402;51.466;6.806;2023-04-03T01:37:13;17.53;;;6.50;;
16579;SDS011;8402;51.466;6.806;2023-04-03T01:39:43;13.17;;;6.33;;
16579;SDS011;8402;51.466;6.806;2023-04-03T01:42:13;12.30;;;6.70;;
16579;SDS011;8402;51.466;6.806;2023-04-03T01:44:43;14.23;;;6.67;;
16579;SDS011;8402;51.466;6.806;2023-04-03T01:47:16;12.00;;;6.00;;
16579;SDS011;8402;51.466;6.806;2023-04-03T01:49:46;13.33;;;6.77;;
16579;SDS011;8402;51.466;6.806;2023-04-03T01:52:16;11.97;;;6.27;;
16579;SDS011;8402;51.466;6.806;2023-04-03T01:54:46;10.97;;;6.07;;
16579;SDS011;8402;51.466;6.806;2023-04-03T01:57:17;11.93;;;5.93;;
16579;SDS011;8402;51.466;6.806;2023-04-03T01:59:47;12.07;;;5.90;;
16579;SDS011;8402;51.466;6.806;2023-04-03T02:02:20;13.83;;;6.30;;
16579;SDS011;8402;51.466;6.806;2023-04-03T02:04:50;14.53;;;5.93;;
16579;SDS011;8402;51.466;6.806;2023-04-03T02:07:21;12.60;;;5.60;;
16579;SDS011;8402;51.466;6.806;2023-04-03T02:09:51;11.07;;;5.53;;
16579;SDS011;8402;51.466;6.806;2023-04-03T02:12:21;12.33;;;5.13;;
16579;SDS011;8402;51.466;6.806;2023-04-03T02:14:51;13.23;;;5.30;;
16579;SDS011;8402;51.466;6.806;2023-04-03T02:17:24;11.10;;;5.07;;
16579;SDS011;8402;51.466;6.806;2023-04-03T02:19:54;10.47;;;5.53;;
16579;SDS011;8402;51.466;6.806;2023-04-03T02:22:24;10.53;;;5.23;;
16579;SDS011;8402;51.466;6.806;2023-04-03T02:24:53;12.00;;;5.63;;
16579;SDS011;8402;51.466;6.806;2023-04-03T02:27:23;9.47;;;4.77;;
16579;SDS011;8402;51.466;6.806;2023-04-03T02:29:53;13.87;;;5.30;;
16579;SDS011;8402;51.466;6.806;2023-04-03T02:32:26;8.07;;;4.63;;
16579;SDS011;8402;51.466;6.806;2023-04-03T02:34:56;8.77;;;4.70;;
16579;SDS011;8402;51.466;6.806;2023-04-03T02:37:25;7.53;;;4.43;;
16579;SDS011;8402;51.466;6.806;2023-04-03T02:39:56;9.20;;;4.60;;
16579;SDS011;8402;51.466;6.806;2023-04-03T02:42:26;8.17;;;4.53;;
16579;SDS011;8402;51.466;6.806;2023-04-03T02:44:56;10.03;;;4.27;;
16579;SDS011;8402;51.466;6.806;2023-04-03T02:47:29;9.50;;;4.47;;
16579;SDS011;8402;51.466;6.806;2023-04-03T02:49:59;10.30;;;4.23;;
16579;SDS011;8402;51.466;6.806;2023-04-03T02:52:29;8.83;;;4.17;;
16579;SDS011;8402;51.466;6.806;2023-04-03T02:54:59;11.40;;;4.67;;
16579;SDS011;8402;51.466;6.806;2023-04-03T02:57:29;11.53;;;4.30;;
16579;SDS011;8402;51.466;6.806;2023-04-03T02:59:59;9.57;;;4.37;;
16579;SDS011;8402;51.466;6.806;2023-04-03T03:02:32;7.87;;;3.70;;
16579;SDS011;8402;51.466;6.806;2023-04-03T03:05:02;9.43;;;4.67;;
16579;SDS011;8402;51.466;6.806;2023-04-03T03:07:33;8.13;;;3.97;;
16579;SDS011;8402;51.466;6.806;2023-04-03T03:10:03;8.50;;;3.40;;
16579;SDS011;8402;51.466;6.806;2023-04-03T03:12:33;8.23;;;3.43;;
16579;SDS011;8402;51.466;6.806;2023-04-03T03:15:04;8.23;;;3.60;;
16579;SDS011;8402;51.466;6.806;2023-04-03T03:17:37;6.17;;;3.23;;
16579;SDS011;8402;51.466;6.806;2023-04-03T03:20:07;7.87;;;3.30;;
16579;SDS011;8402;51.466;6.806;2023-04-03T03:22:38;7.53;;;3.10;;
16579;SDS011;8402;51.466;6.806;2023-04-03T03:25:08;5.87;;;2.80;;
16579;SDS011;8402;51.466;6.806;2023-04-03T03:27:38;6.87;;;3.10;;
16579;SDS011;8402;51.466;6.806;2023-04-03T03:30:09;4.73;;;2.53;;
16579;SDS011;8402;51.466;6.806;2023-04-03T03:32:42;6.20;;;2.60;;
16579;SDS011;8402;51.466;6.806;2023-04-03T03:35:12;6.03;;;2.63;;
16579;SDS011;8402;51.466;6.806;2023-04-03T03:37:42;6.43;;;2.37;;
16579;SDS011;8402;51.466;6.806;2023-04-03T03:40:12;4.47;;;1.97;;
16579;SDS011;8402;51.466;6.806;2023-04-03T03:42:43;5.80;;;2.33;;
16579;SDS011;8402;51.466;6.806;2023-04-03T03:45:13;7.50;;;2.13;;
16579;SDS011;8402;51.466;6.806;2023-04-03T03:47:45;4.53;;;1.73;;
16579;SDS011;8402;51.466;6.806;2023-04-03T03:50:15;5.57;;;2.00;;
16579;SDS011;8402;51.466;6.806;2023-04-03T03:52:45;3.53;;;1.63;;
16579;SDS011;8402;51.466;6.806;2023-04-03T03:55:16;3.87;;;1.90;;
16579;SDS011;8402;51.466;6.806;2023-04-03T03:57:46;7.53;;;2.20;;
16579;SDS011;8402;51.466;6.806;2023-04-03T04:00:16;7.77;;;2.00;;
16579;SDS011;8402;51.466;6.806;2023-04-03T04:02:49;5.03;;;1.63;;
16579;SDS011;8402;51.466;6.806;2023-04-03T04:05:21;7.70;;;1.87;;
16579;SDS011;8402;51.466;6.806;2023-04-03T04:07:50;5.37;;;2.03;;
16579;SDS011;8402;51.466;6.806;2023-04-03T04:10:20;3.73;;;1.50;;
16579;SDS011;8402;51.466;6.806;2023-04-03T04:12:50;5.60;;;1.90;;
16579;SDS011;8402;51.466;6.806;2023-04-03T04:15:23;5.27;;;2.07;;
16579;SDS011;8402;51.466;6.806;2023-04-03T04:17:56;4.57;;;1.93;;
16579;SDS011;8402;51.466;6.806;2023-04-03T04:20:26;6.33;;;1.97;;
16579;SDS011;8402;51.466;6.806;2023-04-03T04:22:56;4.93;;;1.47;;
16579;SDS011;8402;51.466;6.806;2023-04-03T04:25:26;7.40;;;2.10;;
16579;SDS011;8402;51.466;6.806;2023-04-03T04:27:55;4.23;;;1.87;;
16579;SDS011;8402;51.466;6.806;2023-04-03T04:30:25;5.47;;;2.00;;
16579;SDS011;8402;51.466;6.806;2023-04-03T04:32:58;6.30;;;1.80;;
16579;SDS011;8402;51.466;6.806;2023-04-03T04:35:28;3.17;;;1.37;;
16579;SDS011;8402;51.466;6.806;2023-04-03T04:37:58;3.93;;;1.70;;
16579;SDS011;8402;51.466;6.806;2023-04-03T04:40:28;4.50;;;1.77;;
16579;SDS011;8402;51.466;6.806;2023-04-03T04:42:58;3.53;;;1.67;;
16579;SDS011;8402;51.466;6.806;2023-04-03T04:45:28;3.57;;;1.60;;
16579;SDS011;8402;51.466;6.806;2023-04-03T04:48:01;6.83;;;1.97;;
16579;SDS011;8402;51.466;6.806;2023-04-03T04:50:31;7.97;;;1.80;;
16579;SDS011;8402;51.466;6.806;2023-04-03T04:53:01;6.67;;;2.10;;
16579;SDS011;8402;51.466;6.806;2023-04-03T04:55:31;7.03;;;2.13;;
16579;SDS011;8402;51.466;6.806;2023-04-03T04:58:01;5.83;;;2.27;;
16579;SDS011;8402;51.466;6.806;2023-04-03T05:00:31;3.67;;;1.57;;
16579;SDS011;8402;51.466;6.806;2023-04-03T05:03:04;4.17;;;2.20;;
16579;SDS011;8402;51.466;6.806;2023-04-03T05:05:34;6.90;;;2.00;;
16579;SDS011;8402;51.466;6.806;2023-04-03T05:08:05;8.60;;;2.30;;
16579;SDS011;8402;51.466;6.806;2023-04-03T05:10:35;5.23;;;1.80;;
16579;SDS011;8402;51.466;6.806;2023-04-03T05:13:07;8.83;;;1.60;;
16579;SDS011;8402;51.466;6.806;2023-04-03T05:15:37;5.87;;;2.30;;
16579;SDS011;8402;51.466;6.806;2023-04-03T05:18:09;7.17;;;1.77;;
16579;SDS011;8402;51.466;6.806;2023-04-03T05:20:39;9.60;;;2.20;;
16579;SDS011;8402;51.466;6.806;2023-04-03T05:23:10;5.73;;;1.80;;
16579;SDS011;8402;51.466;6.806;2023-04-03T05:25:40;6.33;;;1.90;;
16579;SDS011;8402;51.466;6.806;2023-04-03T05:28:13;6.00;;;2.17;;
16579;SDS011;8402;51.466;6.806;2023-04-03T05:30:43;6.07;;;2.03;;
16579;SDS011;8402;51.466;6.806;2023-04-03T05:33:15;4.07;;;1.87;;
16579;SDS011;8402;51.466;6.806;2023-04-03T05:35:45;5.30;;;1.80;;
16579;SDS011;8402;51.466;6.806;2023-04-03T05:38:16;7.63;;;1.93;;
16579;SDS011;8402;51.466;6.806;2023-04-03T05:40:46;7.33;;;2.13;;
16579;SDS011;8402;51.466;6.806;2023-04-03T05:43:16;8.10;;;2.10;;
16579;SDS011;8402;51.466;6.806;2023-04-03T05:45:46;3.73;;;1.63;;
16579;SDS011;8402;51.466;6.806;2023-04-03T05:48:19;5.80;;;2.00;;
16579;SDS011;8402;51.466;6.806;2023-04-03T05:50:49;7.00;;;1.80;;
16579;SDS011;8402;51.466;6.806;2023-04-03T05:53:23;7.13;;;1.80;;
16579;SDS011;8402;51.466;6.806;2023-04-03T05:55:56;6.93;;;2.00;;
16579;SDS011;8402;51.466;6.806;2023-04-03T05:58:26;5.33;;;1.90;;
16579;SDS011;8402;51.466;6.806;2023-04-03T06:00:56;5.10;;;1.77;;
16579;SDS011;8402;51.466;6.806;2023-04-03T06:03:29;6.90;;;2.17;;
16579;SDS011;8402;51.466;6.806;2023-04-03T06:05:59;7.47;;;1.80;;
16579;SDS011;8402;51.466;6.806;2023-04-03T06:08:31;10.37;;;1.57;;
16579;SDS011;8402;51.466;6.806;2023-04-03T06:11:01;3.97;;;1.50;;
16579;SDS011;8402;51.466;6.806;2023-04-03T06:13:31;5.90;;;1.90;;
16579;SDS011;8402;51.466;6.806;2023-04-03T06:16:01;6.43;;;1.80;;
16579;SDS011;8402;51.466;6.806;2023-04-03T06:18:34;8.13;;;2.20;;
16579;SDS011;8402;51.466;6.806;2023-04-03T06:21:04;5.20;;;1.70;;
16579;SDS011;8402;51.466;6.806;2023-04-03T06:23:34;11.07;;;1.87;;
16579;SDS011;8402;51.466;6.806;2023-04-03T06:26:04;4.87;;;2.07;;
16579;SDS011;8402;51.466;6.806;2023-04-03T06:28:34;3.50;;;1.50;;
16579;SDS011;8402;51.466;6.806;2023-04-03T06:31:04;2.60;;;1.50;;
16579;SDS011;8402;51.466;6.806;2023-04-03T06:33:38;3.03;;;1.60;;
16579;SDS011;8402;51.466;6.806;2023-04-03T06:36:09;5.50;;;1.20;;
16579;SDS011;8402;51.466;6.806;2023-04-03T06:38:40;5.43;;;1.63;;
16579;SDS011;8402;51.466;6.806;2023-04-03T06:41:10;6.30;;;1.73;;
16579;SDS011;8402;51.466;6.806;2023-04-03T06:43:40;6.23;;;1.90;;
16579;SDS011;8402;51.466;6.806;2023-04-03T06:46:12;4.83;;;1.70;;
16579;SDS011;8402;51.466;6.806;2023-04-03T06:48:46;13.77;;;2.00;;
16579;SDS011;8402;51.466;6.806;2023-04-03T06:51:20;6.47;;;1.47;;
16579;SDS011;8402;51.466;6.806;2023-04-03T06:53:52;9.80;;;2.30;;
16579;SDS011;8402;51.466;6.806;2023-04-03T06:56:23;4.67;;;1.57;;
16579;SDS011;8402;51.466;6.806;2023-04-03T06:58:54;9.37;;;1.73;;
16579;SDS011;8402;51.466;6.806;2023-04-03T07:01:27;6.20;;;2.03;;
16579;SDS011;8402;51.466;6.806;2023-04-03T07:04:00;6.73;;;1.93;;
16579;SDS011;8402;51.466;6.806;2023-04-03T07:06:30;4.90;;;1.60;;
16579;SDS011;8402;51.466;6.806;2023-04-03T07:09:01;11.13;;;2.37;;
16579;SDS011;8402;51.466;6.806;2023-04-03T07:11:31;9.37;;;1.97;;
16579;SDS011;8402;51.466;6.806;2023-04-03T07:14:01;5.50;;;1.90;;
16579;SDS011;8402;51.466;6.806;2023-04-03T07:16:32;7.53;;;1.73;;
16579;SDS011;8402;51.466;6.806;2023-04-03T07:19:08;8.33;;;1.53;;
16579;SDS011;8402;51.466;6.806;2023-04-03T07:21:38;4.57;;;1.73;;
16579;SDS011;8402;51.466;6.806;2023-04-03T07:24:10;5.17;;;2.13;;
16579;SDS011;8402;51.466;6.806;2023-04-03T07:26:42;6.27;;;1.63;;
16579;SDS011;8402;51.466;6.806;2023-04-03T07:29:12;10.83;;;2.07;;
16579;SDS011;8402;51.466;6.806;2023-04-03T07:31:42;5.30;;;1.80;;
16579;SDS011;8402;51.466;6.806;2023-04-03T07:34:14;5.27;;;2.20;;
16579;SDS011;8402;51.466;6.806;2023-04-03T07:36:44;4.80;;;1.90;;
16579;SDS011;8402;51.466;6.806;2023-04-03T07:39:14;4.23;;;1.57;;
16579;SDS011;8402;51.466;6.806;2023-04-03T07:41:44;4.80;;;1.43;;
16579;SDS011;8402;51.466;6.806;2023-04-03T07:44:14;5.53;;;1.70;;
16579;SDS011;8402;51.466;6.806;2023-04-03T07:46:44;5.20;;;1.80;;
16579;SDS011;8402;51.466;6.806;2023-04-03T07:49:17;10.03;;;2.27;;
16579;SDS011;8402;51.466;6.806;2023-04-03T07:51:49;7.23;;;1.87;;
16579;SDS011;8402;51.466;6.806;2023-04-03T07:54:19;5.23;;;1.90;;
16579;SDS011;8402;51.466;6.806;2023-04-03T07:56:49;8.50;;;2.00;;
16579;SDS011;8402;51.466;6.806;2023-04-03T07:59:19;5.43;;;2.00;;
16579;SDS011;8402;51.466;6.806;2023-04-03T08:01:49;5.57;;;1.80;;
16579;SDS011;8402;51.466;6.806;2023-04-03T08:04:21;3.93;;;1.60;;
16579;SDS011;8402;51.466;6.806;2023-04-03T08:06:52;6.10;;;1.50;;
16579;SDS011;8402;51.466;6.806;2023-04-03T08:09:23;5.13;;;1.53;;
16579;SDS011;8402;51.466;6.806;2023-04-03T08:11:52;9.43;;;1.70;;
16579;SDS011;8402;51.466;6.806;2023-04-03T08:14:23;5.37;;;1.90;;
16579;SDS011;8402;51.466;6.806;2023-04-03T08:16:53;4.30;;;1.73;;
16579;SDS011;8402;51.466;6.806;2023-04-03T08:19:26;3.73;;;1.50;;
16579;SDS011;8402;51.466;6.806;2023-04-03T08:21:56;4.80;;;1.77;;
16579;SDS011;8402;51.466;6.806;2023-04-03T08:24:29;4.63;;;1.40;;
16579;SDS011;8402;51.466;6.806;2023-04-03T08:26:59;4.60;;;2.00;;
16579;SDS011;8402;51.466;6.806;2023-04-03T08:29:30;6.83;;;2.00;;
16579;SDS011;8402;51.466;6.806;2023-04-03T08:32:00;3.20;;;1.40;;
16579;SDS011;8402;51.466;6.806;2023-04-03T08:34:33;3.43;;;1.50;;
16579;SDS011;8402;51.466;6.806;2023-04-03T08:37:05;5.83;;;1.70;;
16579;SDS011;8402;51.466;6.806;2023-04-03T08:39:35;6.93;;;1.80;;
16579;SDS011;8402;51.466;6.806;2023-04-03T08:42:07;7.10;;;1.50;;
16579;SDS011;8402;51.466;6.806;2023-04-03T08:44:46;8.30;;;1.50;;
16579;SDS011;8402;51.466;6.806;2023-04-03T08:47:23;8.20;;;1.43;;
16579;SDS011;8402;51.466;6.806;2023-04-03T08:49:59;2.73;;;1.50;;
16579;SDS011;8402;51.466;6.806;2023-04-03T08:52:36;4.27;;;1.80;;
16579;SDS011;8402;51.466;6.806;2023-04-03T08:55:14;6.70;;;1.50;;
16579;SDS011;8402;51.466;6.806;2023-04-03T08:57:53;4.57;;;1.67;;
16579;SDS011;8402;51.466;6.806;2023-04-03T09:00:32;3.23;;;1.37;;
16579;SDS011;8402;51.466;6.806;2023-04-03T09:03:10;3.67;;;1.03;;
16579;SDS011;8402;51.466;6.806;2023-04-03T09:05:46;3.87;;;1.33;;
16579;SDS011;8402;51.466;6.806;2023-04-03T09:08:21;4.80;;;1.60;;
16579;SDS011;8402;51.466;6.806;2023-04-03T09:10:58;5.03;;;1.17;;
16579;SDS011;8402;51.466;6.806;2023-04-03T09:13:35;5.53;;;1.20;;
16579;SDS011;8402;51.466;6.806;2023-04-03T09:16:17;2.90;;;1.27;;
16579;SDS011;8402;51.466;6.806;2023-04-03T09:18:57;4.30;;;1.17;;
16579;SDS011;8402;51.466;6.806;2023-04-03T09:21:38;5.43;;;1.30;;
16579;SDS011;8402;51.466;6.806;2023-04-03T09:24:10;4.87;;;1.77;;
16579;SDS011;8402;51.466;6.806;2023-04-03T09:26:43;5.27;;;1.20;;
16579;SDS011;8402;51.466;6.806;2023-04-03T09:29:16;3.20;;;1.00;;
16579;SDS011;8402;51.466;6.806;2023-04-03T09:31:50;3.87;;;1.27;;
16579;SDS011;8402;51.466;6.806;2023-04-03T09:34:26;3.40;;;1.10;;
16579;SDS011;8402;51.466;6.806;2023-04-03T09:37:02;1.90;;;0.80;;
16579;SDS011;8402;51.466;6.806;2023-04-03T09:39:48;3.33;;;1.17;;
16579;SDS011;8402;51.466;6.806;2023-04-03T09:42:20;6.30;;;1.40;;
16579;SDS011;8402;51.466;6.806;2023-04-03T09:44:53;4.27;;;1.00;;
16579;SDS011;8402;51.466;6.806;2023-04-03T09:47:26;3.87;;;0.90;;
16579;SDS011;8402;51.466;6.806;2023-04-03T09:50:09;2.10;;;0.90;;
16579;SDS011;8402;51.466;6.806;2023-04-03T09:52:53;2.00;;;1.00;;
16579;SDS011;8402;51.466;6.806;2023-04-03T09:55:23;2.87;;;0.90;;
16579;SDS011;8402;51.466;6.806;2023-04-03T09:57:57;1.73;;;0.63;;
16579;SDS011;8402;51.466;6.806;2023-04-03T10:00:30;2.00;;;0.80;;
16579;SDS011;8402;51.466;6.806;2023-04-03T10:03:03;1.20;;;0.60;;
16579;SDS011;8402;51.466;6.806;2023-04-03T10:05:34;3.93;;;0.70;;
16579;SDS011;8402;51.466;6.806;2023-04-03T10:08:14;1.10;;;0.57;;
16579;SDS011;8402;51.466;6.806;2023-04-03T10:11:05;2.10;;;0.70;;
16579;SDS011;8402;51.466;6.806;2023-04-03T10:13:50;2.67;;;0.80;;
16579;SDS011;8402;51.466;6.806;2023-04-03T10:16:24;3.40;;;0.70;;
16579;SDS011;8402;51.466;6.806;2023-04-03T10:19:00;2.40;;;0.80;;
16579;SDS011;8402;51.466;6.806;2023-04-03T10:21:43;1.73;;;0.57;;
16579;SDS011;8402;51.466;6.806;2023-04-03T10:24:21;3.13;;;0.53;;
16579;SDS011;8402;51.466;6.806;2023-04-03T10:26:58;2.30;;;0.67;;
16579;SDS011;8402;51.466;6.806;2023-04-03T10:29:39;4.10;;;0.83;;
16579;SDS011;8402;51.466;6.806;2023-04-03T10:35:08;2.57;;;0.70;;
16579;SDS011;8402;51.466;6.806;2023-04-03T10:37:50;2.40;;;0.77;;
16579;SDS011;8402;51.466;6.806;2023-04-03T10:40:33;2.00;;;0.70;;
16579;SDS011;8402;51.466;6.806;2023-04-03T10:43:09;1.43;;;0.60;;
16579;SDS011;8402;51.466;6.806;2023-04-03T10:45:51;2.13;;;0.97;;
16579;SDS011;8402;51.466;6.806;2023-04-03T10:48:40;2.43;;;0.90;;
16579;SDS011;8402;51.466;6.806;2023-04-03T10:51:23;1.57;;;0.70;;
16579;SDS011;8402;51.466;6.806;2023-04-03T10:54:00;2.47;;;0.80;;
16579;SDS011;8402;51.466;6.806;2023-04-03T10:56:40;1.83;;;0.80;;
16579;SDS011;8402;51.466;6.806;2023-04-03T10:59:27;4.30;;;0.87;;
16579;SDS011;8402;51.466;6.806;2023-04-03T11:02:01;1.77;;;0.90;;
16579;SDS011;8402;51.466;6.806;2023-04-03T11:04:36;3.50;;;0.83;;
16579;SDS011;8402;51.466;6.806;2023-04-03T11:07:10;4.10;;;1.03;;
16579;SDS011;8402;51.466;6.806;2023-04-03T11:09:45;2.20;;;0.90;;
16579;SDS011;8402;51.466;6.806;2023-04-03T11:12:23;3.47;;;0.80;;
16579;SDS011;8402;51.466;6.806;2023-04-03T11:14:56;3.73;;;0.97;;
16579;SDS011;8402;51.466;6.806;2023-04-03T11:17:28;2.90;;;0.80;;
16579;SDS011;8402;51.466;6.806;2023-04-03T11:20:04;2.23;;;1.00;;
16579;SDS011;8402;51.466;6.806;2023-04-03T11:22:41;3.53;;;0.90;;
16579;SDS011;8402;51.466;6.806;2023-04-03T11:25:14;3.63;;;1.27;;
16579;SDS011;8402;51.466;6.806;2023-04-03T11:27:54;5.60;;;1.03;;
16579;SDS011;8402;51.466;6.806;2023-04-03T11:30:27;4.47;;;1.43;;
16579;SDS011;8402;51.466;6.806;2023-04-03T11:36:01;4.40;;;1.03;;
16579;SDS011;8402;51.466;6.806;2023-04-03T11:38:51;2.83;;;1.17;;
16579;SDS011;8402;51.466;6.806;2023-04-03T11:41:25;2.93;;;1.00;;
16579;SDS011;8402;51.466;6.806;2023-04-03T11:44:01;3.97;;;1.00;;
16579;SDS011;8402;51.466;6.806;2023-04-03T11:58:23;3.27;;;1.00;;
16579;SDS011;8402;51.466;6.806;2023-04-03T12:01:09;2.50;;;1.00;;
16579;SDS011;8402;51.466;6.806;2023-04-03T12:09:34;3.43;;;1.13;;
16579;SDS011;8402;51.466;6.806;2023-04-03T12:12:38;4.83;;;1.10;;
16579;SDS011;8402;51.466;6.806;2023-04-03T12:22:04;2.50;;;1.10;;
16579;SDS011;8402;51.466;6.806;2023-04-03T12:24:53;4.83;;;1.17;;
16579;SDS011;8402;51.466;6.806;2023-04-03T12:27:30;3.37;;;0.90;;
16579;SDS011;8402;51.466;6.806;2023-04-03T12:30:12;2.90;;;0.70;;
16579;SDS011;8402;51.466;6.806;2023-04-03T12:32:57;2.50;;;0.93;;
16579;SDS011;8402;51.466;6.806;2023-04-03T12:35:47;3.90;;;1.10;;
16579;SDS011;8402;51.466;6.806;2023-04-03T12:41:32;3.97;;;1.23;;
16579;SDS011;8402;51.466;6.806;2023-04-03T12:44:15;2.80;;;1.00;;
16579;SDS011;8402;51.466;6.806;2023-04-03T12:46:54;2.80;;;1.43;;
16579;SDS011;8402;51.466;6.806;2023-04-03T12:49:29;3.03;;;1.00;;
16579;SDS011;8402;51.466;6.806;2023-04-03T12:52:12;2.63;;;1.03;;
16579;SDS011;8402;51.466;6.806;2023-04-03T12:54:48;3.87;;;1.10;;
16579;SDS011;8402;51.466;6.806;2023-04-03T12:57:20;2.67;;;0.80;;
16579;SDS011;8402;51.466;6.806;2023-04-03T12:59:51;1.90;;;0.90;;
16579;SDS011;8402;51.466;6.806;2023-04-03T13:02:22;2.80;;;1.10;;
16579;SDS011;8402;51.466;6.806;2023-04-03T13:04:55;4.33;;;1.13;;
16579;SDS011;8402;51.466;6.806;2023-04-03T13:07:31;2.67;;;0.90;;
16579;SDS011;8402;51.466;6.806;2023-04-03T13:10:13;5.70;;;1.50;;
16579;SDS011;8402;51.466;6.806;2023-04-03T13:12:47;2.20;;;0.87;;
16579;SDS011;8402;51.466;6.806;2023-04-03T13:15:19;2.00;;;0.97;;
16579;SDS011;8402;51.466;6.806;2023-04-03T13:17:52;2.30;;;1.00;;
16579;SDS011;8402;51.466;6.806;2023-04-03T13:20:24;1.67;;;0.87;;
16579;SDS011;8402;51.466;6.806;2023-04-03T13:23:00;3.40;;;1.20;;
16579;SDS011;8402;51.466;6.806;2023-04-03T13:25:34;1.90;;;0.90;;
16579;SDS011;8402;51.466;6.806;2023-04-03T13:28:06;5.27;;;0.97;;
16579;SDS011;8402;51.466;6.806;2023-04-03T13:30:41;2.57;;;0.90;;
16579;SDS011;8402;51.466;6.806;2023-04-03T13:33:25;2.87;;;1.00;;
16579;SDS011;8402;51.466;6.806;2023-04-03T13:35:58;3.20;;;0.83;;
16579;SDS011;8402;51.466;6.806;2023-04-03T13:38:34;2.10;;;0.90;;
16579;SDS011;8402;51.466;6.806;2023-04-03T13:41:05;5.43;;;0.87;;
16579;SDS011;8402;51.466;6.806;2023-04-03T13:43:52;3.00;;;0.90;;
16579;SDS011;8402;51.466;6.806;2023-04-03T13:46:35;6.50;;;0.83;;
16579;SDS011;8402;51.466;6.806;2023-04-03T13:49:17;5.40;;;1.20;;
16579;SDS011;8402;51.466;6.806;2023-04-03T13:51:49;2.83;;;1.20;;
16579;SDS011;8402;51.466;6.806;2023-04-03T13:54:36;4.70;;;0.90;;
16579;SDS011;8402;51.466;6.806;2023-04-03T13:57:11;1.63;;;0.77;;
16579;SDS011;8402;51.466;6.806;2023-04-03T13:59:43;3.57;;;1.03;;
16579;SDS011;8402;51.466;6.806;2023-04-03T14:02:15;1.80;;;0.70;;
16579;SDS011;8402;51.466;6.806;2023-04-03T14:04:49;3.20;;;1.00;;
16579;SDS011;8402;51.466;6.806;2023-04-03T14:07:24;3.40;;;0.90;;
16579;SDS011;8402;51.466;6.806;2023-04-03T14:09:58;2.87;;;0.90;;
16579;SDS011;8402;51.466;6.806;2023-04-03T14:12:32;1.77;;;0.70;;
16579;SDS011;8402;51.466;6.806;2023-04-03T14:15:12;2.00;;;1.00;;
16579;SDS011;8402;51.466;6.806;2023-04-03T14:17:47;2.63;;;1.00;;
16579;SDS011;8402;51.466;6.806;2023-04-03T14:20:19;1.83;;;0.90;;
16579;SDS011;8402;51.466;6.806;2023-04-03T14:22:52;3.00;;;0.97;;
16579;SDS011;8402;51.466;6.806;2023-04-03T14:25:26;2.93;;;1.33;;
16579;SDS011;8402;51.466;6.806;2023-04-03T14:27:56;2.30;;;0.90;;
16579;SDS011;8402;51.466;6.806;2023-04-03T14:30:28;2.37;;;0.90;;
16579;SDS011;8402;51.466;6.806;2023-04-03T14:33:00;2.63;;;1.00;;
16579;SDS011;8402;51.466;6.806;2023-04-03T14:35:31;6.43;;;0.93;;
16579;SDS011;8402;51.466;6.806;2023-04-03T14:38:02;2.80;;;0.80;;
16579;SDS011;8402;51.466;6.806;2023-04-03T14:40:37;2.80;;;1.07;;
16579;SDS011;8402;51.466;6.806;2023-04-03T14:43:09;2.90;;;1.07;;
16579;SDS011;8402;51.466;6.806;2023-04-03T14:45:41;2.83;;;0.93;;
16579;SDS011;8402;51.466;6.806;2023-04-03T14:48:12;46.87;;;26.67;;
16579;SDS011;8402;51.466;6.806;2023-04-03T14:50:51;2.20;;;0.93;;
16579;SDS011;8402;51.466;6.806;2023-04-03T14:53:31;1.43;;;0.73;;
16579;SDS011;8402;51.466;6.806;2023-04-03T14:56:08;1.40;;;0.80;;
16579;SDS011;8402;51.466;6.806;2023-04-03T14:58:41;2.53;;;0.70;;
16579;SDS011;8402;51.466;6.806;2023-04-03T15:01:16;3.90;;;1.20;;
16579;SDS011;8402;51.466;6.806;2023-04-03T15:03:46;4.10;;;1.10;;
16579;SDS011;8402;51.466;6.806;2023-04-03T15:06:17;3.57;;;1.20;;
16579;SDS011;8402;51.466;6.806;2023-04-03T15:08:47;3.60;;;1.10;;
16579;SDS011;8402;51.466;6.806;2023-04-03T15:11:20;4.17;;;1.03;;
16579;SDS011;8402;51.466;6.806;2023-04-03T15:13:50;1.60;;;0.93;;
16579;SDS011;8402;51.466;6.806;2023-04-03T15:16:20;4.47;;;0.90;;
16579;SDS011;8402;51.466;6.806;2023-04-03T15:18:58;1.93;;;1.00;;
16579;SDS011;8402;51.466;6.806;2023-04-03T15:21:28;3.60;;;1.10;;
16579;SDS011;8402;51.466;6.806;2023-04-03T15:23:58;10.13;;;1.10;;
16579;SDS011;8402;51.466;6.806;2023-04-03T15:26:31;4.57;;;1.10;;
16579;SDS011;8402;51.466;6.806;2023-04-03T15:29:02;3.27;;;1.10;;
16579;SDS011;8402;51.466;6.806;2023-04-03T15:31:32;4.33;;;1.30;;
16579;SDS011;8402;51.466;6.806;2023-04-03T15:34:02;6.17;;;1.30;;
16579;SDS011;8402;51.466;6.806;2023-04-03T15:36:33;4.57;;;1.20;;
16579;SDS011;8402;51.466;6.806;2023-04-03T15:39:03;3.50;;;1.27;;
16579;SDS011;8402;51.466;6.806;2023-04-03T15:41:35;2.63;;;1.27;;
16579;SDS011;8402;51.466;6.806;2023-04-03T15:44:05;2.10;;;1.13;;
16579;SDS011;8402;51.466;6.806;2023-04-03T15:46:35;2.73;;;1.10;;
16579;SDS011;8402;51.466;6.806;2023-04-03T15:49:05;2.27;;;1.00;;
16579;SDS011;8402;51.466;6.806;2023-04-03T15:51:35;1.70;;;0.87;;
16579;SDS011;8402;51.466;6.806;2023-04-03T15:54:05;4.03;;;1.10;;
16579;SDS011;8402;51.466;6.806;2023-04-03T15:56:37;4.80;;;1.10;;
16579;SDS011;8402;51.466;6.806;2023-04-03T15:59:07;2.77;;;1.30;;
16579;SDS011;8402;51.466;6.806;2023-04-03T16:01:37;6.17;;;1.43;;
16579;SDS011;8402;51.466;6.806;2023-04-03T16:04:08;3.33;;;1.00;;
16579;SDS011;8402;51.466;6.806;2023-04-03T16:06:41;2.43;;;1.10;;